Time;durP1;ratioP1;P1;durP2;ratioP2;P2;SDS_P1;SDS_P2;PMS_P1;PMS_P2;Temp;Humidity;BMP_temperature;BMP_pressure;BME280_temperature;BME280_humidity;BME280_pressure;Samples;Min_cycle;Max_cycle;Signal;HPM_P1;HPM_P2
2024/04/20 00:00:26;;;;;;;11.75;2.78;;;1.40;99.90;;;-144.05;88.34;57008.13;5377726;26;20000;-82
2024/04/20 00:02:53;;;;;;;9.77;3.00;;;1.50;99.90;;;-144.05;88.65;57008.13;5378899;26;20441;-84
2024/04/20 00:05:20;;;;;;;7.30;3.17;;;1.50;99.90;;;-144.05;88.81;56989.00;5379607;26;20118;-84
2024/04/20 00:07:49;;;;;;;13.48;3.45;;;1.50;99.90;;;-144.05;89.11;57006.00;5378952;26;19996;-82
2024/04/20 00:10:17;;;;;;;9.65;2.78;;;4.90;99.90;;;-144.05;89.00;56982.66;5377441;26;20137;-82
2024/04/20 00:12:44;;;;;;;8.50;3.15;;;;;;;-144.05;89.34;56991.13;5377766;26;20432;-83
2024/04/20 00:15:10;;;;;;;7.28;3.17;;;1.30;99.90;;;-144.05;89.28;56986.91;5379385;26;20040;-84
2024/04/20 00:17:37;;;;;;;9.60;3.10;;;1.30;99.90;;;-144.05;89.01;56980.53;5379287;26;20001;-82
2024/04/20 00:20:04;;;;;;;6.70;3.15;;;1.20;99.90;;;-144.05;89.06;57023.00;5378629;26;20001;-84
2024/04/20 00:22:31;;;;;;;9.30;3.67;;;5.50;99.90;;;-144.05;89.49;56991.13;5378257;26;20004;-81
2024/04/20 00:24:56;;;;;;;8.25;3.83;;;1.30;99.90;;;-144.05;89.34;56955.03;5368005;26;20000;-83
2024/04/20 00:27:23;;;;;;;13.00;3.33;;;;;;;-144.05;89.56;57010.25;5379095;26;20010;-82
2024/04/20 00:29:48;;;;;;;10.00;3.63;;;0.80;99.90;;;-144.05;89.58;56986.91;5347561;26;20032;-82
2024/04/20 00:32:14;;;;;;;9.70;3.60;;;1.10;99.90;;;-144.05;89.53;56982.66;5348107;26;20011;-80
2024/04/20 00:34:41;;;;;;;12.85;3.78;;;;;;;-144.05;89.63;57001.75;5348070;26;20524;-80
2024/04/20 00:37:07;;;;;;;11.30;3.60;;;1.00;99.90;;;-144.05;89.64;56999.63;5334401;26;19996;-82
2024/04/20 00:39:33;;;;;;;11.02;4.20;;;4.80;99.90;;;-144.05;89.80;56957.16;5348139;26;20091;-82
2024/04/20 00:42:00;;;;;;;9.45;3.63;;;1.00;99.90;;;-144.05;89.71;57020.88;5378699;26;20008;-82
2024/04/20 00:44:26;;;;;;;11.48;3.60;;;1.20;99.90;;;-144.05;89.64;57012.38;5348077;26;20011;-82
2024/04/20 00:46:55;;;;;;;10.55;3.63;;;4.60;99.90;;;-144.05;89.53;56993.25;5378700;26;20015;-83
2024/04/20 00:49:22;;;;;;;8.50;3.17;;;1.20;99.90;;;-144.05;89.51;57008.13;5379350;26;20028;-83
2024/04/20 00:51:51;;;;;;;16.90;4.53;;;1.10;99.90;;;-144.05;89.66;56982.66;5378574;26;20432;-82
2024/04/20 00:54:19;;;;;;;16.45;5.10;;;5.00;99.90;;;-144.05;89.59;57001.75;5378905;26;20001;-82
2024/04/20 00:56:45;;;;;;;9.35;3.55;;;0.70;99.90;;;-144.05;89.75;57008.13;5363786;26;20001;-82
2024/04/20 00:59:12;;;;;;;12.32;3.60;;;4.40;99.90;;;-144.05;89.63;56993.25;5341495;26;20005;-81
2024/04/20 01:01:39;;;;;;;9.55;3.92;;;1.40;99.90;;;-144.05;89.78;57008.13;5343698;26;20012;-81
2024/04/20 01:04:05;;;;;;;9.43;3.20;;;1.40;99.90;;;-144.05;89.64;57018.75;5378188;26;20000;-83
2024/04/20 01:06:30;;;;;;;8.50;3.88;;;0.90;99.90;;;-144.05;89.61;56978.41;5347668;26;19997;-81
2024/04/20 01:08:56;;;;;;;7.40;4.10;;;0.70;99.90;;;-144.05;89.69;57006.00;5363981;26;20011;-82
2024/04/20 01:11:24;;;;;;;10.40;3.90;;;4.90;99.90;;;-144.05;89.67;56991.13;5378871;26;20015;-83
2024/04/20 01:13:57;;;;;;;5.72;3.75;;;1.20;99.90;;;-144.05;89.71;56993.25;5346962;26;20360;-82
2024/04/20 01:16:23;;;;;;;10.60;3.38;;;0.90;99.90;;;-144.05;89.53;57001.75;5378292;26;19997;-82
2024/04/20 01:18:49;;;;;;;6.75;3.30;;;1.10;99.90;;;-144.05;89.60;56999.63;5343579;26;20001;-83
2024/04/20 01:21:17;;;;;;;10.30;3.88;;;;;;;-144.05;89.51;56995.38;5378602;26;20011;-82
2024/04/20 01:23:51;;;;;;;11.38;3.95;;;1.00;99.90;;;-144.05;89.76;56982.66;5377741;26;20499;-82
2024/04/20 01:26:17;;;;;;;11.75;3.67;;;;;;;-144.05;89.72;56986.91;5367905;26;20078;-82
2024/04/20 01:28:43;;;;;;;10.90;3.67;;;0.50;99.90;;;-144.05;90.00;56986.91;5381022;26;20448;-82
2024/04/20 01:31:09;;;;;;;9.93;3.13;;;0.80;99.90;;;-144.05;89.54;56997.50;5381243;26;19996;-83
2024/04/20 01:33:35;;;;;;;10.48;3.65;;;0.70;99.90;;;-144.05;89.54;57001.75;5382981;26;20118;-83
2024/04/20 01:36:02;;;;;;;10.55;3.30;;;;;;;-144.05;89.59;56997.50;5351108;26;20082;-82
2024/04/20 01:38:28;;;;;;;9.07;3.70;;;;;;;-144.05;89.74;57010.25;5381396;26;20030;-82
2024/04/20 01:40:54;;;;;;;6.15;2.97;;;0.60;99.90;;;-144.05;89.72;56997.50;5381218;26;20004;-82
2024/04/20 01:43:20;;;;;;;10.55;4.05;;;0.40;99.90;;;-144.05;89.55;57042.13;5381464;26;20429;-82
2024/04/20 01:45:46;;;;;;;7.80;3.30;;;0.60;99.90;;;-144.05;90.20;57001.75;5380962;26;20464;-83
2024/04/20 01:48:12;;;;;;;11.95;4.00;;;;;;;-144.05;90.04;56982.66;5379155;26;20011;-81
2024/04/20 01:50:38;;;;;;;8.48;3.50;;;0.30;99.90;;;-144.05;90.00;56986.91;5381646;26;20035;-82
2024/04/20 01:53:04;;;;;;;6.63;3.67;;;0.70;99.90;;;-144.05;90.00;57006.00;5380940;26;20078;-83
2024/04/20 01:55:31;;;;;;;8.45;3.90;;;;;;;-144.05;89.88;57016.63;5344274;26;20040;-81
2024/04/20 01:57:57;;;;;;;9.00;3.38;;;0.10;99.90;;;-144.05;89.85;57010.25;5375542;26;20000;-83
2024/04/20 02:00:23;;;;;;;5.82;3.38;;;-0.10;99.90;;;-144.05;89.84;56997.50;5370464;26;20000;-83
2024/04/20 02:02:49;;;;;;;7.72;3.00;;;0.00;99.90;;;-144.05;89.69;57025.13;5380804;26;20004;-83
2024/04/20 02:05:15;;;;;;;12.88;3.58;;;0.30;99.90;;;-144.05;90.10;57014.50;5380914;26;20000;-82
2024/04/20 02:07:41;;;;;;;7.85;3.20;;;;;;;-144.05;90.14;56997.50;5358127;26;20001;-81
2024/04/20 02:10:08;;;;;;;8.85;3.70;;;4.30;99.90;;;-144.05;90.28;57012.38;5366778;26;20000;-82
2024/04/20 02:12:34;;;;;;;8.65;3.78;;;0.00;99.90;;;-144.05;90.44;57031.50;5344100;26;20358;-82
2024/04/20 02:15:00;;;;;;;14.80;3.72;;;-0.10;99.90;;;-144.05;90.60;57006.00;5379188;26;20031;-82
2024/04/20 02:17:25;;;;;;;6.32;4.10;;;-0.20;99.90;;;-144.05;90.59;56980.53;5380761;26;20000;-82
2024/04/20 02:19:51;;;;;;;11.23;3.65;;;-0.30;99.90;;;-144.05;90.20;57003.88;5374020;26;20000;-82
2024/04/20 02:22:17;;;;;;;9.05;4.00;;;0.20;99.90;;;-144.05;90.63;57027.25;5344342;26;20450;-81
2024/04/20 02:24:43;;;;;;;8.48;4.15;;;;;;;-144.05;90.53;57056.97;5376806;26;20015;-80
2024/04/20 02:27:09;;;;;;;13.10;4.15;;;0.00;99.90;;;-144.05;90.30;57014.50;5367161;26;20001;-82
2024/04/20 02:29:35;;;;;;;10.57;3.90;;;4.10;99.90;;;-144.05;90.46;56995.38;5380552;26;19996;-82
2024/04/20 02:32:01;;;;;;;12.50;4.45;;;4.10;99.90;;;-144.05;90.80;57027.25;5380150;26;20453;-82
2024/04/20 02:34:27;;;;;;;10.23;4.30;;;-0.10;99.90;;;-144.05;90.90;57029.38;5379772;26;20472;-81
2024/04/20 02:37:10;;;;;;;10.05;4.20;;;0.40;99.90;;;-144.05;90.63;57016.63;5379700;26;20000;-82
2024/04/20 02:39:40;;;;;;;8.23;4.07;;;3.30;99.90;;;-144.05;91.02;57031.50;5380427;26;20011;-82
2024/04/20 02:42:07;;;;;;;9.30;4.60;;;-0.10;99.90;;;-144.05;90.89;57025.13;5380102;26;20428;-82
2024/04/20 02:44:34;;;;;;;12.85;5.05;;;4.30;99.90;;;-144.05;91.09;57008.13;5378373;26;20008;-82
2024/04/20 02:47:00;;;;;;;13.18;4.78;;;-0.30;99.90;;;-144.05;91.55;57020.88;5380393;26;20006;-81
2024/04/20 02:49:26;;;;;;;10.13;4.88;;;0.90;99.90;;;-144.05;91.61;57029.38;5380333;26;20008;-82
2024/04/20 02:51:52;;;;;;;8.75;4.68;;;;;;;-144.05;91.36;57014.50;5380373;26;20059;-81
2024/04/20 02:54:18;;;;;;;7.55;4.63;;;-0.10;99.90;;;-144.05;91.07;57010.25;5380212;26;20006;-82
2024/04/20 02:56:44;;;;;;;9.32;4.15;;;;;;;-144.05;90.92;57008.13;5392388;26;20028;-83
2024/04/20 02:59:10;;;;;;;9.93;4.80;;;4.00;99.90;;;-144.05;91.17;56993.25;5379542;26;20099;-82
2024/04/20 03:01:36;;;;;;;8.68;5.60;;;-0.20;99.90;;;-144.05;91.45;57008.13;5343136;26;20077;-81
2024/04/20 03:04:02;;;;;;;9.90;4.78;;;0.10;99.90;;;-144.05;91.24;57033.63;5389021;26;20068;-79
2024/04/20 03:06:28;;;;;;;14.88;5.18;;;;;;;-144.05;91.32;57029.38;5387001;26;21017;-82
2024/04/20 03:08:54;;;;;;;13.65;5.13;;;4.10;99.90;;;-144.05;91.14;57029.38;5380899;26;19996;-82
2024/04/20 03:11:21;;;;;;;13.13;4.93;;;0.20;99.90;;;-144.05;91.09;57018.75;5380775;26;20466;-80
2024/04/20 03:13:53;;;;;;;14.95;6.43;;;3.80;99.90;;;-144.05;91.46;57031.50;5379737;26;20360;-82
2024/04/20 03:16:19;;;;;;;14.82;5.60;;;;;;;-144.05;91.49;57001.75;5379857;26;20077;-83
2024/04/20 03:18:46;;;;;;;10.90;7.05;;;;;;;-144.05;91.51;57014.50;5375620;26;20454;-84
2024/04/20 03:21:12;;;;;;;11.30;5.68;;;-0.10;99.90;;;-144.05;91.44;57031.50;5379980;26;20000;-81
2024/04/20 03:23:38;;;;;;;12.98;6.40;;;0.00;99.90;;;-144.05;91.67;56997.50;5378489;26;20011;-83
2024/04/20 03:26:05;;;;;;;11.48;5.93;;;0.20;99.90;;;-144.05;91.42;57001.75;5366732;26;20012;-81
2024/04/20 03:28:31;;;;;;;7.20;4.68;;;-0.50;99.90;;;-144.05;91.30;57033.63;5379753;26;20008;-84
2024/04/20 03:30:58;;;;;;;13.25;6.38;;;;;;;-144.05;91.69;57014.50;5381388;26;20044;-83
2024/04/20 03:33:28;;;;;;;10.82;6.38;;;-0.40;99.90;;;-144.05;91.73;57031.50;5376353;26;20004;-84
2024/04/20 03:35:58;;;;;;;26.52;7.28;;;4.00;99.90;;;-144.05;91.95;57001.75;5378804;26;19996;-82
2024/04/20 03:38:27;;;;;;;17.52;6.72;;;-0.20;99.90;;;-144.05;91.75;57027.25;5382117;26;20400;-82
2024/04/20 03:40:54;;;;;;;10.90;6.30;;;;;;;-144.05;91.80;57025.13;5381837;26;19997;-83
2024/04/20 03:43:20;;;;;;;18.65;7.78;;;-0.30;99.90;;;-144.05;91.91;57035.75;5382895;26;20008;-84
2024/04/20 03:46:04;;;;;;;17.58;6.40;;;0.10;99.90;;;-144.05;91.92;57012.38;5383003;26;20081;-83
2024/04/20 03:48:32;;;;;;;13.57;6.63;;;-0.10;99.90;;;-144.05;92.03;57001.75;5379026;26;20077;-83
2024/04/20 03:50:59;;;;;;;20.58;7.70;;;-0.10;99.90;;;-144.05;92.04;57050.63;5378830;26;19993;-80
2024/04/20 03:53:25;;;;;;;12.73;6.03;;;3.60;99.90;;;-144.05;91.97;57001.75;5383543;26;20004;-78
2024/04/20 03:55:54;;;;;;;17.33;6.95;;;-0.40;99.90;;;-144.05;91.98;57006.00;5403145;26;20011;-79
2024/04/20 03:58:21;;;;;;;10.55;6.13;;;;;;;-144.05;92.00;57029.38;5367073;26;19997;-81
2024/04/20 04:00:48;;;;;;;13.35;6.55;;;;;;;-144.05;91.97;57014.50;5377690;26;20019;-81
2024/04/20 04:03:24;;;;;;;10.95;6.75;;;-0.80;99.90;;;-144.05;92.00;57010.25;5367053;26;20047;-82
2024/04/20 04:05:50;;;;;;;12.13;5.55;;;-0.50;99.90;;;-144.05;92.18;57010.25;5379411;26;19996;-82
2024/04/20 04:08:16;;;;;;;13.75;5.63;;;-0.60;99.90;;;-144.05;92.24;57020.88;5372561;26;20048;-82
2024/04/20 04:10:44;;;;;;;10.45;5.75;;;;;;;-144.05;92.21;57031.50;5373483;26;20000;-81
2024/04/20 04:13:13;;;;;;;12.75;5.53;;;-0.10;99.90;;;-144.05;92.31;57014.50;5348325;26;20007;-81
2024/04/20 04:15:40;;;;;;;12.52;6.28;;;0.40;99.90;;;-144.05;92.30;57012.38;5379645;26;20051;-81
2024/04/20 04:18:06;;;;;;;13.73;6.35;;;-0.20;99.90;;;-144.05;92.64;57031.50;5348006;26;20015;-81
2024/04/20 04:20:34;;;;;;;15.70;5.75;;;-0.40;99.90;;;-144.05;92.39;56989.00;5378740;26;20000;-83
2024/04/20 04:23:03;;;;;;;13.27;5.53;;;0.20;99.90;;;-144.05;92.61;57006.00;5372922;26;20029;-81
2024/04/20 04:25:30;;;;;;;12.27;5.20;;;0.00;99.90;;;-144.05;92.50;57048.50;5327606;26;20091;-83
2024/04/20 04:27:57;;;;;;;10.10;5.30;;;0.20;99.90;;;-144.05;92.45;57014.50;5378813;26;20000;-82
2024/04/20 04:30:24;;;;;;;12.85;5.85;;;;;;;-144.05;92.27;57018.75;5378613;26;20007;-82
2024/04/20 04:32:50;;;;;;;14.45;6.30;;;0.10;99.90;;;-144.05;92.33;57025.13;5376925;26;20463;-81
2024/04/20 04:35:17;;;;;;;9.48;4.80;;;0.20;99.90;;;-144.05;92.53;57001.75;5378472;26;20008;-81
2024/04/20 04:37:43;;;;;;;13.85;5.93;;;0.40;99.90;;;-144.05;92.81;57012.38;5378671;26;20004;-81
2024/04/20 04:40:09;;;;;;;15.52;5.43;;;0.30;99.90;;;-144.05;92.84;57003.88;5347673;26;20007;-83
2024/04/20 04:42:36;;;;;;;9.70;4.95;;;;;;;-144.05;92.60;57023.00;5354969;26;20056;-81
2024/04/20 04:45:03;;;;;;;12.30;5.60;;;3.90;99.90;;;-144.05;92.90;57027.25;5377457;26;20008;-80
2024/04/20 04:47:29;;;;;;;14.27;6.57;;;5.00;99.90;;;-144.05;93.14;57012.38;5342046;26;20005;-82
2024/04/20 04:49:55;;;;;;;9.80;4.82;;;0.50;99.90;;;-144.05;93.05;56995.38;5375686;26;20001;-82
2024/04/20 04:52:20;;;;;;;10.13;4.78;;;1.50;99.90;;;-144.05;92.84;57016.63;5376308;26;20019;-80
2024/04/20 04:54:47;;;;;;;9.18;4.70;;;;;;;-144.05;92.85;56965.66;5376952;26;20074;-81
2024/04/20 04:57:12;;;;;;;10.35;5.53;;;1.00;99.90;;;-144.05;92.97;56991.13;5378400;26;20007;-83
2024/04/20 04:59:39;;;;;;;11.90;4.88;;;5.40;99.90;;;-144.05;92.84;57016.63;5341838;26;19997;-81
2024/04/20 05:02:05;;;;;;;13.82;4.78;;;1.20;99.90;;;-144.05;92.90;56976.28;5359544;26;20488;-81
2024/04/20 05:04:32;;;;;;;13.75;5.20;;;1.60;99.90;;;-144.05;92.83;56965.66;5378622;26;20007;-81
2024/04/20 05:07:00;;;;;;;10.10;4.85;;;1.00;99.90;;;-144.05;92.57;57012.38;5379179;26;20005;-82
2024/04/20 05:09:26;;;;;;;16.17;4.35;;;;;;;-144.05;92.65;56986.91;5343613;26;20068;-81
2024/04/20 05:11:53;;;;;;;14.45;4.60;;;;;;;-144.05;92.54;56999.63;5374485;26;20005;-85
2024/04/20 05:14:19;;;;;;;8.52;4.13;;;;;;;-144.05;92.46;56991.13;5380217;26;20008;-81
2024/04/20 05:16:47;;;;;;;11.60;4.22;;;;;;;-144.05;92.52;56980.53;5381059;26;20000;-82
2024/04/20 05:19:13;;;;;;;15.80;4.38;;;;;;;-144.05;92.43;57023.00;5379742;26;20000;-81
2024/04/20 05:21:39;;;;;;;6.60;3.78;;;1.70;99.90;;;-144.05;92.51;56986.91;5381182;26;20334;-82
2024/04/20 05:24:07;;;;;;;11.35;3.47;;;;;;;-144.05;92.18;57006.00;5344344;26;20012;-82
2024/04/20 05:26:33;;;;;;;7.15;3.80;;;5.80;99.90;;;-144.05;92.39;57003.88;5372714;26;20000;-82
2024/04/20 05:28:59;;;;;;;7.10;3.33;;;1.50;99.90;;;-144.05;92.48;56938.03;5377390;26;20069;-81
2024/04/20 05:31:26;;;;;;;9.32;4.13;;;1.90;99.90;;;-144.05;92.24;57023.00;5380635;26;20453;-83
2024/04/20 05:33:52;;;;;;;5.82;3.22;;;;;;;-144.05;92.05;57023.00;5366255;26;20009;-85
2024/04/20 05:36:18;;;;;;;7.35;3.10;;;;;;;-144.05;92.01;56978.41;5369727;26;20340;-86
2024/04/20 05:38:44;;;;;;;11.38;3.78;;;;;;;-144.05;91.89;57014.50;5380696;26;20016;-84
2024/04/20 05:41:10;;;;;;;8.13;3.38;;;5.80;99.90;;;-144.05;91.96;56948.66;5380207;26;20000;-85
2024/04/20 05:43:36;;;;;;;5.97;3.15;;;;;;;-144.05;91.78;56999.63;5381088;26;20001;-84
2024/04/20 05:46:03;;;;;;;11.23;3.95;;;5.70;99.90;;;-144.05;91.64;56995.38;5376912;26;20453;-81
2024/04/20 05:48:29;;;;;;;5.32;3.45;;;5.70;99.90;;;-144.05;91.48;56989.00;5379531;26;20004;-82
2024/04/20 05:50:55;;;;;;;9.40;3.55;;;6.10;99.90;;;-144.05;91.54;56969.91;5345751;26;20012;-82
2024/04/20 05:53:23;;;;;;;9.80;3.45;;;1.80;99.90;;;-144.05;91.28;56976.28;5350590;26;20012;-81
2024/04/20 05:55:48;;;;;;;10.48;4.18;;;1.80;99.90;;;-144.05;90.93;57006.00;5343464;26;19997;-83
2024/04/20 05:58:14;;;;;;;7.88;3.30;;;;;;;-144.05;91.11;56995.38;5359698;26;20011;-83
2024/04/20 06:00:41;;;;;;;8.50;3.35;;;2.30;99.90;;;-144.05;91.15;56986.91;5378457;26;20000;-82
2024/04/20 06:03:10;;;;;;;5.28;2.95;;;;;;;-144.05;90.87;56976.28;5376398;26;20018;-83
2024/04/20 06:05:40;;;;;;;10.32;3.42;;;2.30;99.90;;;-144.05;90.77;56989.00;5344667;26;20005;-80
2024/04/20 06:08:06;;;;;;;6.40;3.13;;;2.10;99.90;;;-144.05;90.96;56993.25;5345495;26;20047;-82
2024/04/20 06:10:32;;;;;;;5.68;3.00;;;2.00;99.90;;;-144.05;90.70;57010.25;5342750;26;20032;-82
2024/04/20 06:12:58;;;;;;;6.63;3.40;;;;;;;-144.05;90.88;56976.28;5369779;26;20439;-82
2024/04/20 06:15:24;;;;;;;6.38;3.00;;;2.40;99.90;;;-144.05;90.72;56982.66;5351877;26;20441;-81
2024/04/20 06:17:50;;;;;;;7.05;3.58;;;2.00;99.90;;;-144.05;90.43;56972.03;5356640;26;20015;-82
2024/04/20 06:20:16;;;;;;;7.78;3.45;;;2.40;99.90;;;-144.05;90.22;56967.78;5376110;26;20015;-82
2024/04/20 06:22:42;;;;;;;8.98;3.45;;;2.20;99.90;;;-144.05;90.14;56999.63;5351638;26;20012;-82
2024/04/20 06:25:08;;;;;;;6.63;3.50;;;2.50;99.90;;;-144.05;89.98;56967.78;5370875;26;19996;-82
2024/04/20 06:27:35;;;;;;;8.93;3.47;;;;;;;-144.05;90.19;56982.66;5346437;26;20001;-83
2024/04/20 06:30:02;;;;;;;12.48;3.38;;;2.50;99.90;;;-144.05;88.93;56963.53;5380524;26;19999;-78
2024/04/20 06:32:28;;;;;;;7.78;3.63;;;2.90;99.90;;;-144.05;89.27;56980.53;5359153;26;20431;-81
2024/04/20 06:34:54;;;;;;;7.65;3.35;;;6.40;99.90;;;-144.05;88.66;56959.28;5374393;26;20004;-83
2024/04/20 06:37:20;;;;;;;7.88;3.10;;;;;;;-144.05;88.48;56967.78;5364044;26;20005;-79
2024/04/20 06:39:49;;;;;;;10.10;2.97;;;2.80;99.90;;;-144.05;88.68;56976.28;5347115;26;20135;-81
2024/04/20 06:42:15;;;;;;;7.63;3.10;;;7.00;99.90;;;-144.05;88.26;56969.91;5374670;26;20012;-82
2024/04/20 06:44:42;;;;;;;6.38;2.72;;;;;;;-144.05;88.22;56993.25;5358960;26;20019;-80
2024/04/20 06:47:08;;;;;;;7.93;3.22;;;6.70;99.90;;;-144.05;87.83;56989.00;5375332;26;20115;-83
2024/04/20 06:49:35;;;;;;;8.00;2.70;;;;;;;-144.05;87.48;56980.53;5350595;26;20001;-81
2024/04/20 06:52:00;;;;;;;11.32;2.80;;;6.90;99.90;;;-144.05;87.35;56986.91;5344077;26;20659;-83
2024/04/20 06:54:27;;;;;;;4.70;2.60;;;;;;;-144.05;87.61;56984.78;5353468;26;20008;-83
2024/04/20 06:56:52;;;;;;;9.73;3.92;;;6.90;99.90;;;-144.05;87.27;57006.00;5357424;26;20454;-82
2024/04/20 06:59:18;;;;;;;9.70;2.50;;;3.10;99.90;;;-144.05;86.85;56969.91;5359241;26;20077;-81
2024/04/20 07:01:44;;;;;;;10.05;2.80;;;4.70;99.90;;;-144.05;86.56;56938.03;5358966;26;20095;-83
2024/04/20 07:04:10;;;;;;;7.88;2.45;;;4.80;99.90;;;-144.05;86.74;56980.53;5372092;26;20008;-82
2024/04/20 07:06:36;;;;;;;5.85;2.85;;;;;;;-144.05;87.08;56997.50;5383899;26;19996;-80
2024/04/20 07:09:02;;;;;;;4.93;2.70;;;4.10;99.90;;;-144.05;86.68;57001.75;5371099;26;20004;-84
2024/04/20 07:11:28;;;;;;;5.28;2.15;;;;;;;-144.05;86.67;56976.28;5392375;26;20014;-82
2024/04/20 07:13:56;;;;;;;7.32;2.58;;;;;;;-144.05;86.72;56984.78;5386142;26;20417;-78
2024/04/20 07:16:22;;;;;;;3.88;2.40;;;3.50;99.90;;;-144.05;87.17;56972.03;5380640;26;20425;-81
2024/04/20 07:18:48;;;;;;;6.03;2.83;;;6.60;99.90;;;-144.05;87.26;57003.88;5345249;26;20005;-81
2024/04/20 07:21:14;;;;;;;6.38;2.65;;;;;;;-144.05;87.05;56974.16;5345526;26;20468;-82
2024/04/20 07:23:40;;;;;;;6.93;2.67;;;;;;;-144.05;87.25;57003.88;5375247;26;20425;-81
2024/04/20 07:26:07;;;;;;;7.57;2.38;;;6.30;99.90;;;-144.05;87.40;57006.00;5350512;26;20073;-81
2024/04/20 07:28:34;;;;;;;5.60;2.45;;;2.20;99.90;;;-144.05;87.45;56989.00;5362459;26;20132;-82
2024/04/20 07:31:00;;;;;;;3.15;2.05;;;;;;;-144.05;87.28;56997.50;5347059;26;20001;-80
2024/04/20 07:33:26;;;;;;;4.25;2.38;;;6.00;99.90;;;-144.05;87.72;56989.00;5370476;26;20073;-80
2024/04/20 07:35:52;;;;;;;7.93;2.55;;;2.50;99.90;;;-144.05;87.97;56991.13;5380004;26;20300;-83
2024/04/20 07:38:18;;;;;;;7.35;2.30;;;2.20;99.90;;;-144.05;87.50;56969.91;5379708;26;19996;-80
2024/04/20 07:40:44;;;;;;;4.22;2.17;;;6.60;99.90;;;-144.05;87.74;56963.53;5379652;26;20000;-83
2024/04/20 07:43:10;;;;;;;5.80;2.50;;;;;;;-144.05;87.64;56965.66;5380048;26;20000;-82
2024/04/20 07:45:36;;;;;;;5.68;2.10;;;;;;;-144.05;87.81;56989.00;5380654;26;20000;-80
2024/04/20 07:48:04;;;;;;;3.88;1.58;;;2.30;99.90;;;-144.05;87.68;56955.03;5380526;26;20000;-77
2024/04/20 07:50:30;;;;;;;3.60;2.45;;;6.70;99.90;;;-144.05;87.97;56986.91;5379746;26;20136;-81
2024/04/20 07:52:56;;;;;;;4.43;2.10;;;;;;;-144.05;87.73;56980.53;5381585;26;20488;-80
2024/04/20 07:55:22;;;;;;;4.72;2.25;;;6.30;99.90;;;-144.05;87.87;57003.88;5377739;26;20064;-82
2024/04/20 07:57:47;;;;;;;6.00;1.80;;;7.00;99.90;;;-144.05;87.62;57001.75;5381974;26;20357;-80
2024/04/20 08:00:14;;;;;;;3.38;1.80;;;2.60;99.90;;;-144.05;87.75;56963.53;5381647;26;20015;-80
2024/04/20 08:02:40;;;;;;;8.32;2.35;;;4.80;99.90;;;-144.05;87.94;56989.00;5382009;26;20331;-81
2024/04/20 08:05:07;;;;;;;2.00;1.80;;;;;;;-144.05;87.78;56997.50;5377230;26;19996;-79
2024/04/20 08:07:33;;;;;;;4.00;1.70;;;4.20;99.90;;;-144.05;87.68;56993.25;5343976;26;19997;-80
2024/04/20 08:09:59;;;;;;;3.55;1.90;;;6.90;99.90;;;-144.05;88.02;57008.13;5378196;26;20004;-80
2024/04/20 08:12:25;;;;;;;6.32;2.15;;;6.30;99.90;;;-144.05;87.62;57003.88;5380813;26;19997;-78
2024/04/20 08:14:51;;;;;;;3.90;2.47;;;7.20;99.90;;;-144.05;88.02;56978.41;5370446;26;20445;-82
2024/04/20 08:17:18;;;;;;;6.18;2.10;;;4.30;99.90;;;-144.05;87.57;56976.28;5348510;26;19997;-82
2024/04/20 08:19:45;;;;;;;6.13;3.42;;;4.10;99.90;;;-144.05;87.68;56999.63;5380800;26;20011;-82
2024/04/20 08:22:11;;;;;;;5.45;2.45;;;;;;;-144.05;87.29;56999.63;5379010;26;20059;-82
2024/04/20 08:24:37;;;;;;;4.57;2.35;;;7.10;99.90;;;-144.05;86.62;56965.66;5379622;26;20077;-82
2024/04/20 08:27:03;;;;;;;6.50;2.65;;;6.90;99.90;;;-144.05;86.55;56974.16;5380049;26;20477;-80
2024/04/20 08:29:29;;;;;;;4.75;2.40;;;;;;;-144.05;86.17;56989.00;5343021;26;20083;-83
2024/04/20 08:31:55;;;;;;;3.67;2.17;;;4.40;99.90;;;-144.05;86.65;56957.16;5377175;26;20000;-81
2024/04/20 08:34:21;;;;;;;2.85;1.98;;;7.70;99.90;;;-144.05;86.42;56978.41;5347965;26;20074;-81
2024/04/20 08:36:47;;;;;;;2.42;1.95;;;;;;;-144.05;85.91;56965.66;5380288;26;20011;-83
2024/04/20 08:39:14;;;;;;;4.90;2.58;;;7.30;99.90;;;-144.05;85.94;56942.28;5379719;26;20001;-81
2024/04/20 08:42:22;;;;;;;4.40;1.70;;;7.30;99.90;;;-144.05;85.38;56989.00;5349249;26;20004;-81
2024/04/20 08:44:49;;;;;;;1.77;1.55;;;7.70;99.90;;;-144.05;84.59;56957.16;5375526;26;20457;-83
2024/04/20 08:47:16;;;;;;;2.28;2.08;;;;;;;-144.05;83.86;56963.53;5348087;26;19997;-82
2024/04/20 08:49:47;;;;;;;7.22;1.85;;;6.80;99.90;;;-144.05;82.71;56974.16;5378942;26;20130;-83
2024/04/20 08:52:14;;;;;;;6.35;4.75;;;8.30;99.90;;;-144.05;82.77;56974.16;5380429;26;20000;-81
2024/04/20 08:54:43;;;;;;;6.50;2.67;;;8.00;99.90;;;-144.05;81.94;56925.28;5379836;26;20014;-81
2024/04/20 08:57:15;;;;;;;2.28;1.45;;;6.90;99.90;;;-144.05;80.07;56940.16;5375600;26;20449;-81
2024/04/20 08:59:41;;;;;;;3.03;2.22;;;7.40;99.90;;;-144.05;79.07;56952.91;5380837;26;20053;-86
2024/04/20 09:02:27;;;;;;;3.10;2.38;;;7.10;99.90;;;-144.05;76.57;56950.78;5340983;26;20009;-82
2024/04/20 09:04:58;;;;;;;2.15;1.20;;;8.60;99.90;;;-144.05;76.88;56946.53;5380756;26;20028;-86
2024/04/20 09:07:26;;;;;;;3.60;1.30;;;7.50;99.90;;;-144.05;76.05;56982.66;5381491;26;20108;-81
2024/04/20 09:09:52;;;;;;;1.80;1.23;;;;;;;-144.05;76.30;56969.91;5359268;26;20001;-81
2024/04/20 09:12:19;;;;;;;3.58;1.30;;;7.40;99.90;;;-144.05;75.38;56961.41;5346518;26;20012;-84
2024/04/20 09:14:45;;;;;;;3.88;1.70;;;7.90;99.90;;;-144.05;74.64;56972.03;5342088;26;20005;-85
2024/04/20 09:17:11;;;;;;;2.90;1.42;;;;;;;-144.05;74.95;56965.66;5380026;26;20000;-83
2024/04/20 09:19:37;;;;;;;4.25;2.05;;;7.70;99.90;;;-144.05;74.57;56972.03;5382451;26;20134;-86
2024/04/20 09:22:12;;;;;;;4.68;1.20;;;7.20;99.90;;;-144.05;72.29;56976.28;5358185;26;20037;-85
2024/04/20 09:24:38;;;;;;;6.13;1.58;;;7.70;99.90;;;-144.05;71.60;56946.53;5358110;26;20028;-83
2024/04/20 09:27:08;;;;;;;3.38;1.23;;;;;;;-144.05;72.76;56952.91;5378203;26;20014;-83
2024/04/20 09:29:37;;;;;;;3.72;1.50;;;;;;;-144.05;72.49;56959.28;5380276;26;20007;-81
2024/04/20 09:32:08;;;;;;;3.08;1.42;;;7.30;99.90;;;-144.05;72.44;56963.53;5387576;26;20008;-82
2024/04/20 09:34:36;;;;;;;3.70;1.42;;;;;;;-144.05;71.38;56963.53;5399766;26;20005;-81
2024/04/20 09:37:02;;;;;;;4.65;1.65;;;;;;;-144.05;72.28;56974.16;5391306;26;20024;-80
2024/04/20 09:39:28;;;;;;;2.78;1.50;;;7.00;99.90;;;-144.05;72.56;56957.16;5362040;26;20005;-81
2024/04/20 09:42:01;;;;;;;5.40;1.90;;;8.70;99.90;;;-144.05;72.51;56955.03;5389320;26;20004;-82
2024/04/20 09:44:31;;;;;;;7.30;1.70;;;7.60;99.90;;;-144.05;73.64;56986.91;5384520;21;20015;-86
2024/04/20 09:46:58;;;;;;;4.57;1.83;;;7.60;99.90;;;-144.05;73.98;56972.03;5387945;26;20012;-84
2024/04/20 09:49:31;;;;;;;4.07;2.30;;;8.00;99.90;;;-144.05;75.68;56976.28;5395125;26;20000;-86
2024/04/20 09:52:13;;;;;;;4.43;1.10;;;7.30;99.90;;;-144.05;75.75;56989.00;5388951;26;19996;-87
2024/04/20 09:55:06;;;;;;;1.75;1.20;;;7.60;99.90;;;-144.05;76.22;56978.41;5422970;26;19999;-85
2024/04/20 09:57:38;;;;;;;2.78;1.33;;;7.50;99.90;;;-144.05;76.27;56967.78;5389304;26;19996;-86
2024/04/20 10:00:11;;;;;;;3.90;1.30;;;7.40;99.90;;;-144.05;76.57;56978.41;5403251;26;20007;-86
2024/04/20 10:02:39;;;;;;;3.05;1.30;;;;;;;-144.05;77.26;56997.50;5411868;26;19996;-85
2024/04/20 10:05:10;;;;;;;4.25;1.48;;;7.40;99.90;;;-144.05;78.03;56980.53;5420622;26;20014;-86
2024/04/20 10:07:40;;;;;;;2.75;1.35;;;;;;;-144.05;78.51;56986.91;5400475;26;20044;-85
2024/04/20 10:10:07;;;;;;;3.20;1.50;;;7.30;99.90;;;-144.05;80.05;56999.63;5448386;26;19999;-87
2024/04/20 10:12:36;;;;;;;1.67;1.00;;;7.30;99.90;;;-144.05;80.04;56959.28;5395893;26;20457;-86
2024/04/20 10:15:02;;;;;;;2.50;1.17;;;;;;;-144.05;79.65;56969.91;5413622;26;20019;-86
2024/04/20 10:17:29;;;;;;;1.40;0.80;;;;;;;-144.05;79.15;56969.91;5396367;26;20009;-85
2024/04/20 10:20:00;;;;;;;3.03;0.75;;;7.20;99.90;;;-144.05;78.56;56948.66;5434490;26;20353;-84
2024/04/20 10:22:26;;;;;;;2.40;0.70;;;7.50;99.90;;;-144.05;78.81;56976.28;5438347;26;20011;-83
2024/04/20 10:25:00;;;;;;;1.00;0.85;;;7.80;99.90;;;-144.05;78.21;56959.28;5406235;26;20073;-82